sensor_id;sensor_type;location;lat;lon;timestamp;P1;durP1;ratioP1;P2;durP2;ratioP2
22144;SDS011;11238;48.730;11.566;2022-08-03T00:01:51;3.47;;;1.88;;
22144;SDS011;11238;48.730;11.566;2022-08-03T00:04:16;2.47;;;1.80;;
22144;SDS011;11238;48.730;11.566;2022-08-03T00:06:43;2.08;;;1.80;;
22144;SDS011;11238;48.730;11.566;2022-08-03T00:09:08;3.70;;;1.80;;
22144;SDS011;11238;48.730;11.566;2022-08-03T00:11:34;2.92;;;1.90;;
22144;SDS011;11238;48.730;11.566;2022-08-03T00:14:01;3.80;;;1.92;;
22144;SDS011;11238;48.730;11.566;2022-08-03T00:16:28;2.78;;;1.95;;
22144;SDS011;11238;48.730;11.566;2022-08-03T00:18:54;4.00;;;2.05;;
22144;SDS011;11238;48.730;11.566;2022-08-03T00:21:19;3.15;;;1.75;;
22144;SDS011;11238;48.730;11.566;2022-08-03T00:23:45;4.07;;;1.95;;
22144;SDS011;11238;48.730;11.566;2022-08-03T00:26:11;4.10;;;2.22;;
22144;SDS011;11238;48.730;11.566;2022-08-03T00:28:37;3.05;;;2.00;;
22144;SDS011;11238;48.730;11.566;2022-08-03T00:31:03;4.10;;;1.95;;
22144;SDS011;11238;48.730;11.566;2022-08-03T00:33:29;3.58;;;1.80;;
22144;SDS011;11238;48.730;11.566;2022-08-03T00:36:17;2.53;;;1.83;;
22144;SDS011;11238;48.730;11.566;2022-08-03T00:38:42;3.75;;;2.10;;
22144;SDS011;11238;48.730;11.566;2022-08-03T00:41:08;3.67;;;1.70;;
22144;SDS011;11238;48.730;11.566;2022-08-03T00:43:34;4.60;;;2.10;;
22144;SDS011;11238;48.730;11.566;2022-08-03T00:46:00;3.45;;;2.08;;
22144;SDS011;11238;48.730;11.566;2022-08-03T00:48:26;4.22;;;2.00;;
22144;SDS011;11238;48.730;11.566;2022-08-03T00:50:52;2.17;;;1.80;;
22144;SDS011;11238;48.730;11.566;2022-08-03T00:53:18;3.28;;;2.08;;
22144;SDS011;11238;48.730;11.566;2022-08-03T00:55:44;3.78;;;1.92;;
22144;SDS011;11238;48.730;11.566;2022-08-03T00:58:10;1.80;;;1.70;;
22144;SDS011;11238;48.730;11.566;2022-08-03T01:00:38;3.75;;;1.90;;
22144;SDS011;11238;48.730;11.566;2022-08-03T01:03:05;3.08;;;1.70;;
22144;SDS011;11238;48.730;11.566;2022-08-03T01:05:34;2.22;;;1.77;;
22144;SDS011;11238;48.730;11.566;2022-08-03T01:11:28;2.90;;;2.33;;
22144;SDS011;11238;48.730;11.566;2022-08-03T01:14:12;2.30;;;2.10;;
22144;SDS011;11238;48.730;11.566;2022-08-03T01:16:56;2.65;;;1.88;;
22144;SDS011;11238;48.730;11.566;2022-08-03T01:25:02;4.53;;;2.30;;
22144;SDS011;11238;48.730;11.566;2022-08-03T01:27:39;4.55;;;2.10;;
22144;SDS011;11238;48.730;11.566;2022-08-03T01:30:27;2.92;;;2.15;;
22144;SDS011;11238;48.730;11.566;2022-08-03T01:33:05;4.65;;;2.00;;
22144;SDS011;11238;48.730;11.566;2022-08-03T01:35:49;3.50;;;1.92;;
22144;SDS011;11238;48.730;11.566;2022-08-03T01:38:25;2.83;;;2.20;;
22144;SDS011;11238;48.730;11.566;2022-08-03T01:41:02;1.85;;;1.75;;
22144;SDS011;11238;48.730;11.566;2022-08-03T01:43:32;2.42;;;1.98;;
22144;SDS011;11238;48.730;11.566;2022-08-03T01:46:01;2.22;;;2.00;;
22144;SDS011;11238;48.730;11.566;2022-08-03T01:48:28;3.33;;;1.77;;
22144;SDS011;11238;48.730;11.566;2022-08-03T01:50:55;4.53;;;2.00;;
22144;SDS011;11238;48.730;11.566;2022-08-03T01:53:23;3.15;;;2.08;;
22144;SDS011;11238;48.730;11.566;2022-08-03T01:55:51;2.40;;;2.17;;
22144;SDS011;11238;48.730;11.566;2022-08-03T01:58:19;4.22;;;2.08;;
22144;SDS011;11238;48.730;11.566;2022-08-03T02:00:48;3.92;;;1.92;;
22144;SDS011;11238;48.730;11.566;2022-08-03T02:03:15;2.95;;;2.00;;
22144;SDS011;11238;48.730;11.566;2022-08-03T02:05:43;3.67;;;1.77;;
22144;SDS011;11238;48.730;11.566;2022-08-03T02:08:11;4.22;;;1.70;;
22144;SDS011;11238;48.730;11.566;2022-08-03T02:10:39;2.17;;;1.98;;
22144;SDS011;11238;48.730;11.566;2022-08-03T02:13:06;3.10;;;1.83;;
22144;SDS011;11238;48.730;11.566;2022-08-03T02:15:35;4.07;;;1.85;;
22144;SDS011;11238;48.730;11.566;2022-08-03T02:18:02;2.88;;;1.75;;
22144;SDS011;11238;48.730;11.566;2022-08-03T02:20:32;2.58;;;2.10;;
22144;SDS011;11238;48.730;11.566;2022-08-03T02:23:00;3.22;;;2.05;;
22144;SDS011;11238;48.730;11.566;2022-08-03T02:25:26;2.35;;;2.10;;
22144;SDS011;11238;48.730;11.566;2022-08-03T02:27:56;3.22;;;1.95;;
22144;SDS011;11238;48.730;11.566;2022-08-03T02:30:26;2.10;;;1.90;;
22144;SDS011;11238;48.730;11.566;2022-08-03T02:35:23;3.30;;;2.03;;
22144;SDS011;11238;48.730;11.566;2022-08-03T02:37:52;2.97;;;1.90;;
22144;SDS011;11238;48.730;11.566;2022-08-03T02:40:22;2.83;;;2.10;;
22144;SDS011;11238;48.730;11.566;2022-08-03T02:42:50;1.90;;;1.75;;
22144;SDS011;11238;48.730;11.566;2022-08-03T02:45:19;2.83;;;1.80;;
22144;SDS011;11238;48.730;11.566;2022-08-03T02:47:46;2.85;;;2.05;;
22144;SDS011;11238;48.730;11.566;2022-08-03T02:50:13;2.78;;;1.83;;
22144;SDS011;11238;48.730;11.566;2022-08-03T02:52:42;3.17;;;2.10;;
22144;SDS011;11238;48.730;11.566;2022-08-03T02:55:11;2.20;;;1.90;;
22144;SDS011;11238;48.730;11.566;2022-08-03T02:57:38;2.63;;;2.25;;
22144;SDS011;11238;48.730;11.566;2022-08-03T03:00:06;4.40;;;2.08;;
22144;SDS011;11238;48.730;11.566;2022-08-03T03:02:32;2.55;;;2.03;;
22144;SDS011;11238;48.730;11.566;2022-08-03T03:05:00;1.95;;;1.80;;
22144;SDS011;11238;48.730;11.566;2022-08-03T03:07:26;3.50;;;2.10;;
22144;SDS011;11238;48.730;11.566;2022-08-03T03:09:53;2.47;;;1.98;;
22144;SDS011;11238;48.730;11.566;2022-08-03T03:12:19;4.18;;;2.00;;
22144;SDS011;11238;48.730;11.566;2022-08-03T03:14:46;2.78;;;2.10;;
22144;SDS011;11238;48.730;11.566;2022-08-03T03:17:12;4.63;;;2.08;;
22144;SDS011;11238;48.730;11.566;2022-08-03T03:19:41;2.42;;;2.10;;
22144;SDS011;11238;48.730;11.566;2022-08-03T03:22:09;2.55;;;1.90;;
22144;SDS011;11238;48.730;11.566;2022-08-03T03:24:36;3.65;;;2.38;;
22144;SDS011;11238;48.730;11.566;2022-08-03T03:27:05;3.28;;;1.92;;
22144;SDS011;11238;48.730;11.566;2022-08-03T03:29:31;3.28;;;2.05;;
22144;SDS011;11238;48.730;11.566;2022-08-03T03:31:59;4.70;;;2.10;;
22144;SDS011;11238;48.730;11.566;2022-08-03T03:34:25;2.15;;;1.95;;
22144;SDS011;11238;48.730;11.566;2022-08-03T03:36:54;3.30;;;2.38;;
22144;SDS011;11238;48.730;11.566;2022-08-03T03:39:20;2.70;;;2.05;;
22144;SDS011;11238;48.730;11.566;2022-08-03T03:41:46;2.90;;;1.95;;
22144;SDS011;11238;48.730;11.566;2022-08-03T03:44:12;2.45;;;2.08;;
22144;SDS011;11238;48.730;11.566;2022-08-03T03:46:37;2.20;;;1.70;;
22144;SDS011;11238;48.730;11.566;2022-08-03T03:49:04;3.75;;;2.10;;
22144;SDS011;11238;48.730;11.566;2022-08-03T03:51:31;3.35;;;2.00;;
22144;SDS011;11238;48.730;11.566;2022-08-03T03:53:58;4.10;;;2.08;;
22144;SDS011;11238;48.730;11.566;2022-08-03T03:56:26;2.28;;;2.08;;
22144;SDS011;11238;48.730;11.566;2022-08-03T03:58:53;3.17;;;2.10;;
22144;SDS011;11238;48.730;11.566;2022-08-03T04:01:19;1.80;;;1.70;;
22144;SDS011;11238;48.730;11.566;2022-08-03T04:03:45;2.30;;;2.10;;
22144;SDS011;11238;48.730;11.566;2022-08-03T04:06:11;2.65;;;1.98;;
22144;SDS011;11238;48.730;11.566;2022-08-03T04:08:56;2.85;;;2.00;;
22144;SDS011;11238;48.730;11.566;2022-08-03T04:11:52;2.20;;;2.00;;
22144;SDS011;11238;48.730;11.566;2022-08-03T04:16:53;2.95;;;2.10;;
22144;SDS011;11238;48.730;11.566;2022-08-03T04:22:00;2.25;;;2.00;;
22144;SDS011;11238;48.730;11.566;2022-08-03T04:24:33;4.05;;;2.10;;
22144;SDS011;11238;48.730;11.566;2022-08-03T04:27:05;3.17;;;2.30;;
22144;SDS011;11238;48.730;11.566;2022-08-03T04:29:36;2.58;;;1.85;;
22144;SDS011;11238;48.730;11.566;2022-08-03T04:32:05;3.88;;;2.00;;
22144;SDS011;11238;48.730;11.566;2022-08-03T04:34:32;2.28;;;1.90;;
22144;SDS011;11238;48.730;11.566;2022-08-03T04:37:00;4.15;;;2.13;;
22144;SDS011;11238;48.730;11.566;2022-08-03T04:39:30;2.78;;;2.00;;
22144;SDS011;11238;48.730;11.566;2022-08-03T04:42:01;2.95;;;1.90;;
22144;SDS011;11238;48.730;11.566;2022-08-03T04:44:29;2.55;;;2.00;;
22144;SDS011;11238;48.730;11.566;2022-08-03T04:47:00;2.55;;;2.00;;
22144;SDS011;11238;48.730;11.566;2022-08-03T04:49:26;2.10;;;1.90;;
22144;SDS011;11238;48.730;11.566;2022-08-03T04:51:54;3.17;;;2.28;;
22144;SDS011;11238;48.730;11.566;2022-08-03T04:54:20;4.47;;;2.10;;
22144;SDS011;11238;48.730;11.566;2022-08-03T04:56:46;4.10;;;2.10;;
22144;SDS011;11238;48.730;11.566;2022-08-03T04:59:12;3.60;;;2.78;;
22144;SDS011;11238;48.730;11.566;2022-08-03T05:01:39;4.53;;;2.50;;
22144;SDS011;11238;48.730;11.566;2022-08-03T05:04:06;5.25;;;2.33;;
22144;SDS011;11238;48.730;11.566;2022-08-03T05:06:32;2.67;;;2.30;;
22144;SDS011;11238;48.730;11.566;2022-08-03T05:08:58;3.60;;;2.10;;
22144;SDS011;11238;48.730;11.566;2022-08-03T05:11:24;4.63;;;2.03;;
22144;SDS011;11238;48.730;11.566;2022-08-03T05:13:49;7.50;;;2.30;;
22144;SDS011;11238;48.730;11.566;2022-08-03T05:16:15;8.63;;;2.78;;
22144;SDS011;11238;48.730;11.566;2022-08-03T05:18:42;9.05;;;2.50;;
22144;SDS011;11238;48.730;11.566;2022-08-03T05:21:09;6.60;;;2.20;;
22144;SDS011;11238;48.730;11.566;2022-08-03T05:23:38;5.07;;;2.00;;
22144;SDS011;11238;48.730;11.566;2022-08-03T05:26:05;4.60;;;2.78;;
22144;SDS011;11238;48.730;11.566;2022-08-03T05:28:31;3.70;;;2.00;;
22144;SDS011;11238;48.730;11.566;2022-08-03T05:30:56;4.50;;;2.90;;
22144;SDS011;11238;48.730;11.566;2022-08-03T05:33:22;7.82;;;2.40;;
22144;SDS011;11238;48.730;11.566;2022-08-03T05:35:48;5.25;;;2.67;;
22144;SDS011;11238;48.730;11.566;2022-08-03T05:38:14;4.35;;;2.50;;
22144;SDS011;11238;48.730;11.566;2022-08-03T05:40:41;4.55;;;2.42;;
22144;SDS011;11238;48.730;11.566;2022-08-03T05:43:07;4.10;;;2.50;;
22144;SDS011;11238;48.730;11.566;2022-08-03T05:45:33;6.78;;;2.35;;
22144;SDS011;11238;48.730;11.566;2022-08-03T05:47:58;4.85;;;2.85;;
22144;SDS011;11238;48.730;11.566;2022-08-03T05:50:24;4.97;;;2.30;;
22144;SDS011;11238;48.730;11.566;2022-08-03T05:52:50;4.15;;;2.78;;
22144;SDS011;11238;48.730;11.566;2022-08-03T05:55:21;5.10;;;2.90;;
22144;SDS011;11238;48.730;11.566;2022-08-03T05:57:47;3.40;;;2.60;;
22144;SDS011;11238;48.730;11.566;2022-08-03T06:00:13;5.32;;;2.90;;
22144;SDS011;11238;48.730;11.566;2022-08-03T06:02:39;6.72;;;2.67;;
22144;SDS011;11238;48.730;11.566;2022-08-03T06:05:06;5.68;;;2.80;;
22144;SDS011;11238;48.730;11.566;2022-08-03T06:07:33;5.45;;;2.85;;
22144;SDS011;11238;48.730;11.566;2022-08-03T06:09:59;8.05;;;2.97;;
22144;SDS011;11238;48.730;11.566;2022-08-03T06:12:27;7.05;;;3.10;;
22144;SDS011;11238;48.730;11.566;2022-08-03T06:14:53;7.32;;;3.03;;
22144;SDS011;11238;48.730;11.566;2022-08-03T06:17:20;4.38;;;2.45;;
22144;SDS011;11238;48.730;11.566;2022-08-03T06:19:46;6.68;;;2.47;;
22144;SDS011;11238;48.730;11.566;2022-08-03T06:22:12;7.75;;;2.50;;
22144;SDS011;11238;48.730;11.566;2022-08-03T06:24:38;3.15;;;2.20;;
22144;SDS011;11238;48.730;11.566;2022-08-03T06:27:04;5.88;;;2.47;;
22144;SDS011;11238;48.730;11.566;2022-08-03T06:29:29;11.23;;;2.20;;
22144;SDS011;11238;48.730;11.566;2022-08-03T06:31:55;4.25;;;2.58;;
22144;SDS011;11238;48.730;11.566;2022-08-03T06:34:21;6.93;;;2.60;;
22144;SDS011;11238;48.730;11.566;2022-08-03T06:36:46;6.78;;;2.30;;
22144;SDS011;11238;48.730;11.566;2022-08-03T06:39:15;4.07;;;2.20;;
22144;SDS011;11238;48.730;11.566;2022-08-03T06:41:41;4.18;;;2.33;;
22144;SDS011;11238;48.730;11.566;2022-08-03T06:44:07;6.07;;;2.25;;
22144;SDS011;11238;48.730;11.566;2022-08-03T06:46:33;3.40;;;1.90;;
22144;SDS011;11238;48.730;11.566;2022-08-03T06:48:59;5.10;;;2.40;;
22144;SDS011;11238;48.730;11.566;2022-08-03T06:51:25;4.32;;;2.10;;
22144;SDS011;11238;48.730;11.566;2022-08-03T06:53:51;3.92;;;2.20;;
22144;SDS011;11238;48.730;11.566;2022-08-03T06:56:17;4.43;;;2.20;;
22144;SDS011;11238;48.730;11.566;2022-08-03T06:58:44;5.90;;;2.42;;
22144;SDS011;11238;48.730;11.566;2022-08-03T07:01:11;2.10;;;1.90;;
22144;SDS011;11238;48.730;11.566;2022-08-03T07:03:37;3.10;;;1.88;;
22144;SDS011;11238;48.730;11.566;2022-08-03T07:06:04;4.78;;;2.10;;
22144;SDS011;11238;48.730;11.566;2022-08-03T07:08:30;4.25;;;2.30;;
22144;SDS011;11238;48.730;11.566;2022-08-03T07:10:56;4.38;;;2.15;;
22144;SDS011;11238;48.730;11.566;2022-08-03T07:13:22;6.40;;;2.22;;
22144;SDS011;11238;48.730;11.566;2022-08-03T07:15:47;6.82;;;2.20;;
22144;SDS011;11238;48.730;11.566;2022-08-03T07:18:13;6.88;;;2.30;;
22144;SDS011;11238;48.730;11.566;2022-08-03T07:20:39;5.90;;;2.40;;
22144;SDS011;11238;48.730;11.566;2022-08-03T07:23:05;8.98;;;2.10;;
22144;SDS011;11238;48.730;11.566;2022-08-03T07:25:31;4.07;;;2.22;;
22144;SDS011;11238;48.730;11.566;2022-08-03T07:27:57;8.38;;;2.25;;
22144;SDS011;11238;48.730;11.566;2022-08-03T07:30:22;3.55;;;2.20;;
22144;SDS011;11238;48.730;11.566;2022-08-03T07:32:48;6.35;;;2.13;;
22144;SDS011;11238;48.730;11.566;2022-08-03T07:35:14;5.93;;;2.00;;
22144;SDS011;11238;48.730;11.566;2022-08-03T07:37:40;6.18;;;2.25;;
22144;SDS011;11238;48.730;11.566;2022-08-03T07:40:06;9.70;;;2.13;;
22144;SDS011;11238;48.730;11.566;2022-08-03T07:42:32;4.30;;;2.35;;
22144;SDS011;11238;48.730;11.566;2022-08-03T07:44:58;4.40;;;2.33;;
22144;SDS011;11238;48.730;11.566;2022-08-03T07:47:25;6.10;;;2.10;;
22144;SDS011;11238;48.730;11.566;2022-08-03T07:49:52;4.35;;;1.92;;
22144;SDS011;11238;48.730;11.566;2022-08-03T07:52:18;3.88;;;2.20;;
22144;SDS011;11238;48.730;11.566;2022-08-03T07:55:03;6.10;;;1.70;;
22144;SDS011;11238;48.730;11.566;2022-08-03T07:57:33;9.35;;;2.40;;
22144;SDS011;11238;48.730;11.566;2022-08-03T07:59:58;3.08;;;2.35;;
22144;SDS011;11238;48.730;11.566;2022-08-03T08:02:24;4.93;;;1.70;;
22144;SDS011;11238;48.730;11.566;2022-08-03T08:04:50;7.68;;;2.13;;
22144;SDS011;11238;48.730;11.566;2022-08-03T08:07:16;5.00;;;1.77;;
22144;SDS011;11238;48.730;11.566;2022-08-03T08:09:42;6.03;;;1.95;;
22144;SDS011;11238;48.730;11.566;2022-08-03T08:12:08;4.45;;;1.80;;
22144;SDS011;11238;48.730;11.566;2022-08-03T08:14:36;3.65;;;1.90;;
22144;SDS011;11238;48.730;11.566;2022-08-03T08:17:03;4.45;;;1.75;;
22144;SDS011;11238;48.730;11.566;2022-08-03T08:19:28;3.53;;;1.75;;
22144;SDS011;11238;48.730;11.566;2022-08-03T08:21:54;4.10;;;1.58;;
22144;SDS011;11238;48.730;11.566;2022-08-03T08:24:20;3.17;;;1.80;;
22144;SDS011;11238;48.730;11.566;2022-08-03T08:26:46;5.15;;;1.80;;
22144;SDS011;11238;48.730;11.566;2022-08-03T08:29:12;3.83;;;1.90;;
22144;SDS011;11238;48.730;11.566;2022-08-03T08:31:38;2.70;;;1.85;;
22144;SDS011;11238;48.730;11.566;2022-08-03T08:34:04;6.22;;;1.50;;
22144;SDS011;11238;48.730;11.566;2022-08-03T08:36:34;5.18;;;1.52;;
22144;SDS011;11238;48.730;11.566;2022-08-03T08:39:00;1.85;;;1.67;;
22144;SDS011;11238;48.730;11.566;2022-08-03T08:41:26;3.20;;;1.67;;
22144;SDS011;11238;48.730;11.566;2022-08-03T08:43:53;2.35;;;1.30;;
22144;SDS011;11238;48.730;11.566;2022-08-03T08:46:19;2.30;;;1.40;;
22144;SDS011;11238;48.730;11.566;2022-08-03T08:48:45;2.63;;;1.30;;
22144;SDS011;11238;48.730;11.566;2022-08-03T08:51:13;3.97;;;1.90;;
22144;SDS011;11238;48.730;11.566;2022-08-03T08:53:44;3.33;;;1.40;;
22144;SDS011;11238;48.730;11.566;2022-08-03T08:56:14;4.05;;;1.42;;
22144;SDS011;11238;48.730;11.566;2022-08-03T08:58:43;4.68;;;1.60;;
22144;SDS011;11238;48.730;11.566;2022-08-03T09:01:13;4.55;;;1.25;;
22144;SDS011;11238;48.730;11.566;2022-08-03T09:03:39;3.47;;;1.60;;
22144;SDS011;11238;48.730;11.566;2022-08-03T09:06:05;2.10;;;1.20;;
22144;SDS011;11238;48.730;11.566;2022-08-03T09:08:31;3.20;;;1.48;;
22144;SDS011;11238;48.730;11.566;2022-08-03T09:10:58;5.47;;;1.40;;
22144;SDS011;11238;48.730;11.566;2022-08-03T09:13:23;4.07;;;1.15;;
22144;SDS011;11238;48.730;11.566;2022-08-03T09:16:07;4.70;;;1.00;;
22144;SDS011;11238;48.730;11.566;2022-08-03T09:18:34;3.28;;;1.40;;
22144;SDS011;11238;48.730;11.566;2022-08-03T09:23:54;5.13;;;1.05;;
22144;SDS011;11238;48.730;11.566;2022-08-03T09:31:28;2.20;;;1.20;;
22144;SDS011;11238;48.730;11.566;2022-08-03T09:33:54;2.10;;;1.08;;
22144;SDS011;11238;48.730;11.566;2022-08-03T09:36:36;1.13;;;1.00;;
22144;SDS011;11238;48.730;11.566;2022-08-03T09:39:13;1.05;;;0.82;;
22144;SDS011;11238;48.730;11.566;2022-08-03T09:41:41;1.40;;;0.82;;
22144;SDS011;11238;48.730;11.566;2022-08-03T09:44:10;1.58;;;0.93;;
22144;SDS011;11238;48.730;11.566;2022-08-03T09:46:52;1.88;;;1.20;;
22144;SDS011;11238;48.730;11.566;2022-08-03T09:49:20;3.50;;;0.98;;
22144;SDS011;11238;48.730;11.566;2022-08-03T09:51:46;2.58;;;1.10;;
22144;SDS011;11238;48.730;11.566;2022-08-03T09:54:12;4.82;;;1.08;;
22144;SDS011;11238;48.730;11.566;2022-08-03T09:56:57;4.28;;;1.10;;
22144;SDS011;11238;48.730;11.566;2022-08-03T09:59:27;2.65;;;1.38;;
22144;SDS011;11238;48.730;11.566;2022-08-03T10:01:55;4.45;;;1.10;;
22144;SDS011;11238;48.730;11.566;2022-08-03T10:04:22;2.20;;;1.10;;
22144;SDS011;11238;48.730;11.566;2022-08-03T10:07:05;1.67;;;1.45;;
22144;SDS011;11238;48.730;11.566;2022-08-03T10:09:34;3.03;;;1.00;;
22144;SDS011;11238;48.730;11.566;2022-08-03T10:12:11;1.17;;;1.08;;
22144;SDS011;11238;48.730;11.566;2022-08-03T10:14:38;2.83;;;1.10;;
22144;SDS011;11238;48.730;11.566;2022-08-03T10:17:06;2.65;;;0.98;;
22144;SDS011;11238;48.730;11.566;2022-08-03T10:19:33;3.30;;;1.05;;
22144;SDS011;11238;48.730;11.566;2022-08-03T10:22:05;2.35;;;1.10;;
22144;SDS011;11238;48.730;11.566;2022-08-03T10:24:35;1.10;;;1.00;;
22144;SDS011;11238;48.730;11.566;2022-08-03T10:27:05;2.47;;;1.00;;
22144;SDS011;11238;48.730;11.566;2022-08-03T10:29:43;1.60;;;0.90;;
22144;SDS011;11238;48.730;11.566;2022-08-03T10:34:53;2.03;;;1.05;;
22144;SDS011;11238;48.730;11.566;2022-08-03T10:37:59;1.90;;;1.10;;
22144;SDS011;11238;48.730;11.566;2022-08-03T10:40:30;2.90;;;1.00;;
22144;SDS011;11238;48.730;11.566;2022-08-03T10:43:02;2.40;;;1.02;;
22144;SDS011;11238;48.730;11.566;2022-08-03T10:45:34;3.67;;;1.00;;
22144;SDS011;11238;48.730;11.566;2022-08-03T10:48:05;1.10;;;0.90;;
22144;SDS011;11238;48.730;11.566;2022-08-03T10:50:32;1.60;;;0.70;;
22144;SDS011;11238;48.730;11.566;2022-08-03T10:53:02;1.48;;;0.80;;
22144;SDS011;11238;48.730;11.566;2022-08-03T11:01:01;2.08;;;0.90;;
22144;SDS011;11238;48.730;11.566;2022-08-03T11:03:31;1.42;;;1.00;;
22144;SDS011;11238;48.730;11.566;2022-08-03T11:06:16;0.90;;;0.82;;
22144;SDS011;11238;48.730;11.566;2022-08-03T11:08:43;1.13;;;0.90;;
22144;SDS011;11238;48.730;11.566;2022-08-03T11:13:55;2.45;;;1.08;;
22144;SDS011;11238;48.730;11.566;2022-08-03T11:16:23;1.80;;;0.90;;
22144;SDS011;11238;48.730;11.566;2022-08-03T11:18:54;2.65;;;1.00;;
22144;SDS011;11238;48.730;11.566;2022-08-03T11:21:51;1.73;;;1.00;;
22144;SDS011;11238;48.730;11.566;2022-08-03T11:27:18;1.33;;;0.90;;
22144;SDS011;11238;48.730;11.566;2022-08-03T11:38:14;1.55;;;1.00;;
22144;SDS011;11238;48.730;11.566;2022-08-03T11:48:34;1.17;;;0.90;;
22144;SDS011;11238;48.730;11.566;2022-08-03T11:51:00;2.88;;;1.20;;
22144;SDS011;11238;48.730;11.566;2022-08-03T11:53:27;1.80;;;1.05;;
22144;SDS011;11238;48.730;11.566;2022-08-03T11:55:57;3.38;;;0.90;;
22144;SDS011;11238;48.730;11.566;2022-08-03T11:58:24;5.88;;;1.30;;
22144;SDS011;11238;48.730;11.566;2022-08-03T12:00:51;2.03;;;1.15;;
22144;SDS011;11238;48.730;11.566;2022-08-03T12:03:17;3.28;;;1.10;;
22144;SDS011;11238;48.730;11.566;2022-08-03T12:05:48;2.45;;;1.10;;
22144;SDS011;11238;48.730;11.566;2022-08-03T12:08:37;1.95;;;1.00;;
22144;SDS011;11238;48.730;11.566;2022-08-03T12:11:03;2.00;;;1.00;;
22144;SDS011;11238;48.730;11.566;2022-08-03T12:13:37;1.00;;;0.90;;
22144;SDS011;11238;48.730;11.566;2022-08-03T12:16:05;1.27;;;0.90;;
22144;SDS011;11238;48.730;11.566;2022-08-03T12:18:31;1.40;;;1.08;;
22144;SDS011;11238;48.730;11.566;2022-08-03T12:21:05;4.30;;;1.13;;
22144;SDS011;11238;48.730;11.566;2022-08-03T12:23:33;1.23;;;1.13;;
22144;SDS011;11238;48.730;11.566;2022-08-03T12:26:00;4.72;;;1.00;;
22144;SDS011;11238;48.730;11.566;2022-08-03T12:28:28;1.10;;;1.00;;
22144;SDS011;11238;48.730;11.566;2022-08-03T12:30:53;3.55;;;1.20;;
22144;SDS011;11238;48.730;11.566;2022-08-03T12:33:24;3.65;;;1.10;;
22144;SDS011;11238;48.730;11.566;2022-08-03T12:36:01;2.38;;;0.80;;
22144;SDS011;11238;48.730;11.566;2022-08-03T12:38:32;4.30;;;1.08;;
22144;SDS011;11238;48.730;11.566;2022-08-03T12:41:01;1.15;;;1.00;;
22144;SDS011;11238;48.730;11.566;2022-08-03T12:43:29;1.83;;;0.90;;
22144;SDS011;11238;48.730;11.566;2022-08-03T12:46:08;1.00;;;0.80;;
22144;SDS011;11238;48.730;11.566;2022-08-03T12:48:56;1.20;;;1.00;;
22144;SDS011;11238;48.730;11.566;2022-08-03T12:51:37;1.45;;;0.90;;
22144;SDS011;11238;48.730;11.566;2022-08-03T12:54:22;2.60;;;0.98;;
22144;SDS011;11238;48.730;11.566;2022-08-03T12:57:00;2.05;;;0.95;;
22144;SDS011;11238;48.730;11.566;2022-08-03T13:01:56;3.70;;;1.02;;
22144;SDS011;11238;48.730;11.566;2022-08-03T13:04:26;2.25;;;0.90;;
22144;SDS011;11238;48.730;11.566;2022-08-03T13:07:01;0.90;;;0.77;;
22144;SDS011;11238;48.730;11.566;2022-08-03T13:09:28;2.35;;;0.93;;
22144;SDS011;11238;48.730;11.566;2022-08-03T13:12:03;1.08;;;0.82;;
22144;SDS011;11238;48.730;11.566;2022-08-03T13:14:45;1.20;;;0.80;;
22144;SDS011;11238;48.730;11.566;2022-08-03T13:17:13;1.90;;;0.98;;
22144;SDS011;11238;48.730;11.566;2022-08-03T13:19:40;4.15;;;0.90;;
22144;SDS011;11238;48.730;11.566;2022-08-03T13:22:17;1.05;;;0.70;;
22144;SDS011;11238;48.730;11.566;2022-08-03T13:24:46;2.97;;;0.88;;
22144;SDS011;11238;48.730;11.566;2022-08-03T13:27:13;4.72;;;1.00;;
22144;SDS011;11238;48.730;11.566;2022-08-03T13:29:40;2.15;;;1.00;;
22144;SDS011;11238;48.730;11.566;2022-08-03T13:32:07;2.67;;;0.95;;
22144;SDS011;11238;48.730;11.566;2022-08-03T13:34:33;1.02;;;0.80;;
22144;SDS011;11238;48.730;11.566;2022-08-03T13:36:59;1.20;;;0.90;;
22144;SDS011;11238;48.730;11.566;2022-08-03T13:39:25;3.25;;;0.88;;
22144;SDS011;11238;48.730;11.566;2022-08-03T13:41:51;1.08;;;0.90;;
22144;SDS011;11238;48.730;11.566;2022-08-03T13:44:18;1.85;;;0.95;;
22144;SDS011;11238;48.730;11.566;2022-08-03T13:46:44;3.63;;;1.13;;
22144;SDS011;11238;48.730;11.566;2022-08-03T13:49:10;1.02;;;0.80;;
22144;SDS011;11238;48.730;11.566;2022-08-03T13:51:36;1.58;;;0.70;;
22144;SDS011;11238;48.730;11.566;2022-08-03T13:54:02;4.70;;;0.90;;
22144;SDS011;11238;48.730;11.566;2022-08-03T13:56:28;3.28;;;0.80;;
22144;SDS011;11238;48.730;11.566;2022-08-03T13:58:55;2.38;;;0.93;;
22144;SDS011;11238;48.730;11.566;2022-08-03T14:01:21;2.58;;;0.90;;
22144;SDS011;11238;48.730;11.566;2022-08-03T14:03:48;1.67;;;1.02;;
22144;SDS011;11238;48.730;11.566;2022-08-03T14:06:18;2.53;;;0.88;;
22144;SDS011;11238;48.730;11.566;2022-08-03T14:08:44;1.02;;;0.80;;
22144;SDS011;11238;48.730;11.566;2022-08-03T14:11:10;1.88;;;0.90;;
22144;SDS011;11238;48.730;11.566;2022-08-03T14:13:36;2.25;;;0.93;;
22144;SDS011;11238;48.730;11.566;2022-08-03T14:16:02;6.00;;;1.00;;
22144;SDS011;11238;48.730;11.566;2022-08-03T14:18:28;2.00;;;0.80;;
22144;SDS011;11238;48.730;11.566;2022-08-03T14:20:53;1.75;;;1.00;;
22144;SDS011;11238;48.730;11.566;2022-08-03T14:23:19;0.88;;;0.80;;
22144;SDS011;11238;48.730;11.566;2022-08-03T14:25:46;2.05;;;1.10;;
22144;SDS011;11238;48.730;11.566;2022-08-03T14:28:11;2.40;;;0.90;;
22144;SDS011;11238;48.730;11.566;2022-08-03T14:30:38;2.17;;;0.90;;
22144;SDS011;11238;48.730;11.566;2022-08-03T14:33:04;1.52;;;0.88;;
22144;SDS011;11238;48.730;11.566;2022-08-03T14:35:30;0.93;;;0.80;;
22144;SDS011;11238;48.730;11.566;2022-08-03T14:37:56;1.85;;;1.00;;
22144;SDS011;11238;48.730;11.566;2022-08-03T14:40:22;2.13;;;0.90;;
22144;SDS011;11238;48.730;11.566;2022-08-03T14:42:48;1.33;;;0.80;;
22144;SDS011;11238;48.730;11.566;2022-08-03T14:45:14;3.05;;;1.00;;
22144;SDS011;11238;48.730;11.566;2022-08-03T14:47:40;1.63;;;0.80;;
22144;SDS011;11238;48.730;11.566;2022-08-03T14:50:06;1.13;;;0.85;;
22144;SDS011;11238;48.730;11.566;2022-08-03T14:52:32;0.75;;;0.75;;
22144;SDS011;11238;48.730;11.566;2022-08-03T14:54:58;0.80;;;0.80;;
22144;SDS011;11238;48.730;11.566;2022-08-03T14:57:25;1.13;;;0.85;;
22144;SDS011;11238;48.730;11.566;2022-08-03T14:59:51;1.25;;;0.93;;
22144;SDS011;11238;48.730;11.566;2022-08-03T15:02:17;0.80;;;0.77;;
22144;SDS011;11238;48.730;11.566;2022-08-03T15:04:43;1.00;;;0.80;;
22144;SDS011;11238;48.730;11.566;2022-08-03T15:07:09;0.70;;;0.70;;
22144;SDS011;11238;48.730;11.566;2022-08-03T15:09:35;0.82;;;0.80;;
22144;SDS011;11238;48.730;11.566;2022-08-03T15:12:03;3.10;;;0.70;;
22144;SDS011;11238;48.730;11.566;2022-08-03T15:14:30;1.15;;;0.93;;
22144;SDS011;11238;48.730;11.566;2022-08-03T15:16:57;1.27;;;0.80;;
22144;SDS011;11238;48.730;11.566;2022-08-03T15:19:22;1.27;;;0.80;;
22144;SDS011;11238;48.730;11.566;2022-08-03T15:21:49;3.22;;;0.98;;
22144;SDS011;11238;48.730;11.566;2022-08-03T15:24:14;2.30;;;1.05;;
22144;SDS011;11238;48.730;11.566;2022-08-03T15:26:40;2.70;;;0.82;;
22144;SDS011;11238;48.730;11.566;2022-08-03T15:29:06;3.10;;;1.00;;
22144;SDS011;11238;48.730;11.566;2022-08-03T15:31:32;1.23;;;1.00;;
22144;SDS011;11238;48.730;11.566;2022-08-03T15:33:59;5.25;;;1.10;;
22144;SDS011;11238;48.730;11.566;2022-08-03T15:36:25;1.02;;;0.80;;
22144;SDS011;11238;48.730;11.566;2022-08-03T15:38:51;2.55;;;0.93;;